createdAt,value
2022-11-25T00:02:12.953Z,98770.48
2022-11-25T00:07:15.524Z,98772.12
2022-11-25T00:12:22.884Z,98777.19
2022-11-25T00:17:24.765Z,98779.19
2022-11-25T00:22:26.657Z,98789.86
2022-11-25T00:27:28.524Z,98785.85
2022-11-25T00:32:33.067Z,98787.34
2022-11-25T00:37:34.944Z,98788.95
2022-11-25T00:42:58.433Z,98788.20
2022-11-25T00:48:07.073Z,98793.35
2022-11-25T00:53:09.153Z,98790.98
2022-11-25T00:58:11.032Z,98792.98
2022-11-25T01:03:13.838Z,98798.45
2022-11-25T01:08:15.815Z,98798.35
2022-11-25T01:13:17.698Z,98800.84
2022-11-25T01:18:19.675Z,98798.73
2022-11-25T01:23:21.661Z,98797.29
2022-11-25T01:28:23.539Z,98795.80
2022-11-25T01:33:28.298Z,98792.39
2022-11-25T01:38:30.472Z,98792.38
2022-11-25T01:43:32.658Z,98792.59
2022-11-25T01:48:40.068Z,98797.13
2022-11-25T01:53:42.259Z,98802.35
2022-11-25T01:58:46.190Z,98799.45
2022-11-25T02:03:50.831Z,98798.98
2022-11-25T02:08:55.479Z,98800.73
2022-11-25T02:13:58.590Z,98801.52
2022-11-25T02:19:03.744Z,98801.08
2022-11-25T02:24:12.076Z,98805.09
2022-11-25T02:29:14.464Z,98805.02
2022-11-25T02:34:16.754Z,98807.79
2022-11-25T02:39:19.342Z,98807.42
2022-11-25T02:44:21.838Z,98805.11
2022-11-25T02:49:23.822Z,98805.11
2022-11-25T02:54:26.426Z,98808.88
2022-11-25T02:59:28.298Z,98813.80
2022-11-25T03:04:31.304Z,98816.55
2022-11-25T03:09:33.180Z,98820.86
2022-11-25T03:14:35.226Z,98819.89
2022-11-25T03:19:37.349Z,98820.52
2022-11-25T03:24:39.147Z,98821.66
2022-11-25T03:29:41.113Z,98821.66
2022-11-25T03:34:43.333Z,98827.88
2022-11-25T03:39:45.872Z,98835.44
2022-11-25T03:44:47.876Z,98836.76
2022-11-25T03:49:49.902Z,98833.96
2022-11-25T03:54:52.147Z,98834.85
2022-11-25T03:59:56.687Z,98835.91
2022-11-25T04:04:58.752Z,98840.06
2022-11-25T04:10:00.651Z,98836.83
2022-11-25T04:15:04.378Z,98837.23
2022-11-25T04:20:07.476Z,98839.06
2022-11-25T04:25:09.975Z,98840.08
2022-11-25T04:30:12.476Z,98840.25
2022-11-25T04:35:15.568Z,98844.45
2022-11-25T04:40:20.667Z,98842.98
2022-11-25T04:45:26.612Z,98851.94
2022-11-25T04:50:30.434Z,98851.02
2022-11-25T04:55:40.307Z,98854.21
2022-11-25T05:00:46.773Z,98855.90
2022-11-25T05:05:49.487Z,98867.27
2022-11-25T05:10:52.434Z,98877.99
2022-11-25T05:15:54.510Z,98883.67
2022-11-25T05:21:00.965Z,98890.71
2022-11-25T05:26:04.584Z,98892.75
2022-11-25T05:31:14.725Z,98889.42
2022-11-25T05:36:18.485Z,98889.59
2022-11-25T05:41:21.895Z,98894.45
2022-11-25T05:46:25.879Z,98895.19
2022-11-25T05:51:30.578Z,98901.80
2022-11-25T05:56:34.641Z,98902.46
2022-11-25T06:01:55.018Z,98903.10
2022-11-25T06:06:56.822Z,98901.27
2022-11-25T06:11:58.876Z,98905.91
2022-11-25T06:17:01.073Z,98912.25
2022-11-25T06:22:09.701Z,98915.58
2022-11-25T06:27:11.790Z,98919.54
2022-11-25T06:32:13.948Z,98917.94
2022-11-25T06:37:36.127Z,98918.67
2022-11-25T06:42:38.260Z,98920.17
2022-11-25T06:47:40.138Z,98927.13
2022-11-25T06:52:41.975Z,98931.17
2022-11-25T06:57:43.786Z,98933.53
2022-11-25T07:02:48.691Z,98937.93
2022-11-25T07:07:50.909Z,98939.88
2022-11-25T07:12:53.178Z,98947.17
2022-11-25T07:17:54.990Z,98949.38
2022-11-25T07:22:56.819Z,98952.92
2022-11-25T07:27:59.945Z,98959.90
2022-11-25T07:33:01.965Z,98958.95
2022-11-25T07:38:03.955Z,98960.46
2022-11-25T07:43:05.894Z,98963.73
2022-11-25T07:48:07.736Z,98964.05
2022-11-25T07:53:09.649Z,98966.94
2022-11-25T07:58:11.526Z,98969.05
2022-11-25T08:03:13.452Z,98970.05
2022-11-25T08:08:15.387Z,98974.27
2022-11-25T08:13:17.366Z,98971.55
2022-11-25T08:18:19.366Z,98981.46
2022-11-25T08:23:21.148Z,98981.83
2022-11-25T08:28:23.288Z,98987.22
2022-11-25T08:33:25.099Z,98994.47
2022-11-25T08:38:27.983Z,98997.92
2022-11-25T08:43:30.088Z,98991.39
2022-11-25T08:48:33.390Z,98989.77
2022-11-25T08:53:35.773Z,98992.61
2022-11-25T08:58:37.732Z,98994.02
2022-11-25T09:03:42.293Z,99000.97
2022-11-25T09:08:45.056Z,99005.10
2022-11-25T09:13:46.958Z,99004.55
2022-11-25T09:18:55.291Z,99009.80
2022-11-25T09:23:57.567Z,99008.80
2022-11-25T09:28:59.496Z,99019.29
2022-11-25T09:34:01.375Z,99012.33
2022-11-25T09:39:03.763Z,99005.05
2022-11-25T09:44:31.622Z,99001.05
2022-11-25T09:49:40.215Z,99000.17
2022-11-25T09:54:44.482Z,99007.34
2022-11-25T09:59:50.766Z,99000.13
2022-11-25T10:04:57.422Z,98998.01
2022-11-25T10:10:01.511Z,99004.42
2022-11-25T10:15:06.521Z,99006.67
2022-11-25T10:20:15.119Z,99005.80
2022-11-25T10:25:27.590Z,99010.73
2022-11-25T10:30:52.807Z,99012.49
2022-11-25T10:35:57.724Z,99007.05
2022-11-25T10:41:00.737Z,99004.67
2022-11-25T10:46:02.481Z,99002.23
2022-11-25T10:51:23.161Z,99004.55
2022-11-25T10:56:24.971Z,99007.27
2022-11-25T11:01:26.826Z,99009.91
2022-11-25T11:06:38.703Z,99012.33
2022-11-25T11:11:47.549Z,99015.98
2022-11-25T11:16:53.950Z,99012.95
2022-11-25T11:21:56.630Z,99013.98
2022-11-25T11:27:20.795Z,99012.90
2022-11-25T11:32:24.066Z,99012.43
2022-11-25T11:37:31.940Z,99006.34
2022-11-25T11:43:06.001Z,99006.54
2022-11-25T11:48:14.019Z,99007.16
2022-11-25T11:53:15.997Z,99011.26
2022-11-25T11:58:26.992Z,99012.08
2022-11-25T12:03:29.743Z,99007.36
2022-11-25T12:08:41.089Z,99009.21
2022-11-25T12:13:57.867Z,99012.02
2022-11-25T12:19:06.766Z,99015.84
2022-11-25T12:24:14.354Z,99015.41
2022-11-25T12:29:20.340Z,99020.77
2022-11-25T12:34:22.109Z,99017.63
2022-11-25T12:39:37.634Z,99017.35
2022-11-25T12:44:54.465Z,99016.67
2022-11-25T12:49:57.264Z,99016.19
2022-11-25T12:55:19.019Z,99010.17
2022-11-25T13:00:41.213Z,99014.51
2022-11-25T13:05:50.141Z,99018.38
2022-11-25T13:10:55.121Z,99022.62
2022-11-25T13:15:59.509Z,99026.13
2022-11-25T13:21:09.749Z,99025.87
2022-11-25T13:26:32.031Z,99029.73
2022-11-25T13:31:35.145Z,99029.06
2022-11-25T13:36:50.855Z,99030.94
2022-11-25T13:42:03.896Z,99030.66
2022-11-25T13:48:53.292Z,99038.02
2022-11-25T13:54:01.825Z,99035.34
2022-11-25T13:59:48.664Z,99037.73
2022-11-25T14:05:09.331Z,99036.70
2022-11-25T14:10:22.013Z,99037.15
2022-11-25T14:15:23.785Z,99038.35
2022-11-25T14:20:32.283Z,99039.80
2022-11-25T14:25:43.526Z,99040.71
2022-11-25T14:30:53.627Z,99042.39
2022-11-25T14:36:02.191Z,99045.80
2022-11-25T14:41:13.427Z,99053.23
2022-11-25T14:46:25.362Z,99056.69
2022-11-25T14:51:34.168Z,99056.28
2022-11-25T14:56:37.067Z,99057.94
2022-11-25T15:01:40.205Z,99059.54
2022-11-25T15:06:48.712Z,99056.33
2022-11-25T15:11:57.605Z,99051.05
2022-11-25T15:17:00.259Z,99055.73
2022-11-25T15:27:28.813Z,99059.58
2022-11-25T15:32:37.685Z,99064.55
2022-11-25T15:37:39.593Z,99068.41
2022-11-25T15:42:42.366Z,99074.95
2022-11-25T15:47:44.998Z,99071.75
2022-11-25T15:52:51.361Z,99070.62
2022-11-25T15:57:54.533Z,99073.91
2022-11-25T16:02:57.958Z,99079.00
2022-11-25T16:08:24.406Z,99082.20
2022-11-25T16:13:33.987Z,99081.77
2022-11-25T16:19:03.411Z,99086.92
2022-11-25T16:24:08.003Z,99093.35
2022-11-25T16:29:18.769Z,99096.42
2022-11-25T16:34:24.237Z,99097.82
2022-11-25T16:39:26.235Z,99098.64
2022-11-25T16:44:28.953Z,99103.40
2022-11-25T16:49:31.837Z,99102.39
2022-11-25T16:54:34.060Z,99098.90
2022-11-25T16:59:39.860Z,99104.90
2022-11-25T17:04:41.845Z,99101.78
2022-11-25T17:09:45.049Z,99111.77
2022-11-25T17:14:48.506Z,99122.46
2022-11-25T17:19:50.809Z,99127.21
2022-11-25T17:24:52.733Z,99127.67
2022-11-25T17:29:57.302Z,99128.56
2022-11-25T17:34:59.567Z,99127.79
2022-11-25T17:40:01.348Z,99130.14
2022-11-25T17:45:03.609Z,99133.98
2022-11-25T17:50:22.594Z,99135.79
2022-11-25T17:55:24.452Z,99142.46
2022-11-25T18:00:26.350Z,99143.61
2022-11-25T18:05:28.741Z,99146.92
2022-11-25T18:10:30.663Z,99149.96
2022-11-25T18:15:34.141Z,99154.27
2022-11-25T18:20:36.019Z,99156.88
2022-11-25T18:25:39.931Z,99162.64
2022-11-25T18:30:41.846Z,99168.70
2022-11-25T18:35:45.361Z,99170.98
2022-11-25T18:40:51.986Z,99179.52
2022-11-25T18:45:55.768Z,99182.36
2022-11-25T18:50:57.760Z,99180.36
2022-11-25T18:55:59.656Z,99182.78
2022-11-25T19:01:10.901Z,99183.23
2022-11-25T19:06:17.436Z,99179.61
2022-11-25T19:11:31.162Z,99184.59
2022-11-25T19:16:33.030Z,99186.55
2022-11-25T19:21:34.918Z,99187.46
2022-11-25T19:26:42.421Z,99191.10
2022-11-25T19:31:44.460Z,99195.07
2022-11-25T19:36:46.252Z,99194.07
2022-11-25T19:41:48.397Z,99203.11
2022-11-25T19:47:14.230Z,99204.42
2022-11-25T19:52:27.905Z,99207.63
2022-11-25T19:57:29.685Z,99215.23
2022-11-25T20:02:31.682Z,99216.43
2022-11-25T20:07:34.683Z,99216.36
2022-11-25T20:12:36.468Z,99222.20
2022-11-25T20:17:41.218Z,99225.91
2022-11-25T20:22:55.995Z,99231.28
2022-11-25T20:27:57.736Z,99235.97
2022-11-25T20:32:59.490Z,99231.74
2022-11-25T20:38:01.572Z,99235.69
2022-11-25T20:43:03.370Z,99243.50
2022-11-25T20:48:11.282Z,99242.70
2022-11-25T20:53:19.561Z,99246.48
2022-11-25T20:58:31.050Z,99240.46
2022-11-25T21:03:32.992Z,99243.68
2022-11-25T21:08:34.724Z,99243.36
2022-11-25T21:13:36.667Z,99244.80
2022-11-25T21:18:39.050Z,99249.45
2022-11-25T21:23:40.970Z,99255.85
2022-11-25T21:28:45.589Z,99256.59
2022-11-25T21:33:48.226Z,99261.63
2022-11-25T21:38:52.972Z,99264.24
2022-11-25T21:43:55.105Z,99261.06
2022-11-25T21:48:56.929Z,99265.25
2022-11-25T21:53:58.695Z,99272.97
2022-11-25T21:59:02.894Z,99275.31
2022-11-25T22:04:04.804Z,99285.23
2022-11-25T22:09:06.622Z,99287.17
2022-11-25T22:14:39.443Z,99289.24
2022-11-25T22:19:41.527Z,99299.00
2022-11-25T22:24:43.816Z,99309.40
2022-11-25T22:29:45.726Z,99313.77
2022-11-25T22:34:47.481Z,99320.14
2022-11-25T22:39:49.573Z,99327.05
2022-11-25T22:44:52.419Z,99334.20
2022-11-25T22:49:54.425Z,99334.89
2022-11-25T22:55:00.095Z,99337.15
2022-11-25T23:00:01.851Z,99338.52
2022-11-25T23:05:13.283Z,99344.64
2022-11-25T23:10:27.173Z,99348.64
2022-11-25T23:15:29.436Z,99350.00
2022-11-25T23:20:32.564Z,99350.59
2022-11-25T23:25:34.293Z,99350.78
2022-11-25T23:36:24.879Z,99354.73
2022-11-25T23:41:39.649Z,99353.02
2022-11-25T23:46:42.106Z,99355.71
2022-11-25T23:51:43.925Z,99353.73
2022-11-25T23:56:45.729Z,99355.83
